Time;durP1;ratioP1;P1;durP2;ratioP2;P2;SDS_P1;SDS_P2;PMS_P1;PMS_P2;Temp;Humidity;BMP_temperature;BMP_pressure;BME280_temperature;BME280_humidity;BME280_pressure;Samples;Min_cycle;Max_cycle;Signal;HPM_P1;HPM_P2
2023/09/18 00:00:51;;;;;;;44.45;28.30;;;;;;;19.16;100.00;100303.00;4901059;29;20090;-87
2023/09/18 00:03:24;;;;;;;36.90;27.42;;;;;;;19.16;100.00;100295.53;4888491;29;20476;-87
2023/09/18 00:05:50;;;;;;;38.83;27.45;;;;;;;19.20;100.00;100293.22;4906241;29;20501;-88
2023/09/18 00:08:17;;;;;;;41.28;27.42;;;;;;;19.17;100.00;100290.84;4899004;29;20048;-87
2023/09/18 00:10:47;;;;;;;39.38;27.42;;;;;;;19.13;100.00;100279.25;4906194;29;20062;-88
2023/09/18 00:13:13;;;;;;;40.25;24.52;;;;;;;19.22;100.00;100272.56;4918393;29;20028;-88
2023/09/18 00:15:40;;;;;;;40.88;24.10;;;;;;;19.23;100.00;100263.19;4885008;29;20501;-88
2023/09/18 00:18:06;;;;;;;36.85;24.85;;;;;;;19.21;100.00;100265.28;4914152;29;20036;-87
2023/09/18 00:20:31;;;;;;;35.55;24.50;;;;;;;19.18;100.00;100256.47;4889742;29;20062;-88
2023/09/18 00:22:57;;;;;;;36.20;23.80;;;;;;;19.18;100.00;100265.66;4891983;29;20414;-87
2023/09/18 00:25:22;;;;;;;38.42;27.13;;;;;;;19.14;100.00;100258.78;4912775;29;20032;-88
2023/09/18 00:27:48;;;;;;;39.42;25.35;;;;;;;19.20;100.00;100262.69;4903567;29;20064;-87
2023/09/18 00:30:14;;;;;;;47.03;26.52;;;;;;;19.20;100.00;100251.59;4921970;29;20024;-88
2023/09/18 00:32:40;;;;;;;39.00;24.30;;;;;;;19.14;100.00;100241.28;4898011;29;20032;-88
2023/09/18 00:35:05;;;;;;;42.45;25.60;;;;;;;19.12;100.00;100237.81;4909924;29;20180;-88
2023/09/18 00:37:31;;;;;;;32.35;22.17;;;;;;;19.22;100.00;100241.19;4897676;29;20051;-88
2023/09/18 00:39:57;;;;;;;36.15;23.25;;;;;;;19.15;100.00;100230.00;4902960;29;20032;-88
2023/09/18 00:42:22;;;;;;;34.47;21.27;;;;;;;19.28;100.00;100218.19;4902641;29;20041;-88
2023/09/18 00:44:48;;;;;;;28.05;18.65;;;;;;;19.32;100.00;100227.84;4894397;29;20023;-88
2023/09/18 00:47:15;;;;;;;26.77;17.67;;;;;;;19.25;100.00;100229.66;4915347;29;20064;-88
2023/09/18 00:49:43;;;;;;;29.27;18.08;;;;;;;19.34;100.00;100220.19;4906163;29;20028;-88
2023/09/18 00:52:10;;;;;;;22.80;16.60;;;;;;;19.45;100.00;100221.59;4909827;29;20050;-87
2023/09/18 00:54:38;;;;;;;21.80;15.10;;;;;;;19.47;100.00;100222.25;4921260;29;20066;-86
2023/09/18 00:57:05;;;;;;;24.80;14.98;;;;;;;19.53;100.00;100210.38;4903516;29;20040;-86
2023/09/18 00:59:31;;;;;;;22.75;15.15;;;;;;;19.51;100.00;100208.84;4918470;29;20048;-87
2023/09/18 01:01:56;;;;;;;23.58;14.30;;;;;;;19.51;100.00;100204.13;4894704;29;20103;-87
2023/09/18 01:04:23;;;;;;;20.00;13.40;;;;;;;19.56;100.00;100189.66;4922979;29;20557;-88
2023/09/18 01:06:49;;;;;;;23.73;14.00;;;;;;;19.61;100.00;100188.03;4946033;29;20042;-88
2023/09/18 01:09:18;;;;;;;29.02;13.73;;;;;;;19.50;100.00;100185.78;4907513;29;20035;-87
2023/09/18 01:12:13;;;;;;;21.98;13.70;;;;;;;19.55;100.00;100183.25;4918282;29;20399;-88
2023/09/18 01:15:12;;;;;;;23.38;13.30;;;;;;;19.45;100.00;100178.03;4918265;29;20479;-87
2023/09/18 01:17:40;;;;;;;19.60;12.30;;;;;;;19.45;100.00;100166.06;4932601;29;20038;-88
2023/09/18 01:20:11;;;;;;;16.50;12.65;;;;;;;19.54;100.00;100167.66;4904500;29;20034;-88
2023/09/18 01:22:37;;;;;;;24.77;13.20;;;;;;;19.52;100.00;100168.91;4886587;29;20123;-87
2023/09/18 01:25:02;;;;;;;24.30;12.85;;;;;;;19.50;100.00;100165.50;4917006;29;20504;-87
2023/09/18 01:27:28;;;;;;;16.67;11.35;;;;;;;19.52;100.00;100175.31;4900324;29;20060;-88
2023/09/18 01:29:54;;;;;;;21.65;11.45;;;;;;;19.56;100.00;100182.22;4943218;29;20098;-87
2023/09/18 01:32:21;;;;;;;19.67;11.57;;;;;;;19.51;100.00;100173.59;4900681;29;20043;-87
2023/09/18 01:34:54;;;;;;;16.30;10.80;;;;;;;19.57;100.00;100164.47;4932059;29;20122;-87
2023/09/18 01:37:22;;;;;;;22.85;10.63;;;;;;;19.58;100.00;100159.81;4929314;29;20028;-87
2023/09/18 01:39:50;;;;;;;18.65;10.55;;;;;;;19.59;100.00;100158.72;4924745;29;20036;-87
2023/09/18 01:42:16;;;;;;;21.13;10.38;;;;;;;19.61;100.00;100156.59;4931878;29;20040;-86
2023/09/18 01:44:43;;;;;;;15.43;9.73;;;;;;;19.60;100.00;100141.88;4906454;29;20510;-88
2023/09/18 01:47:16;;;;;;;23.67;10.95;;;;;;;19.63;100.00;100133.16;4928193;29;20063;-87
2023/09/18 01:49:42;;;;;;;21.13;9.20;;;;;;;19.62;100.00;100150.00;4922790;29;20031;-88
2023/09/18 01:52:08;;;;;;;15.98;9.18;;;;;;;19.61;100.00;100143.59;4927428;29;20497;-87
2023/09/18 01:54:34;;;;;;;20.40;9.70;;;;;;;19.63;100.00;100141.47;4907728;29;20028;-88
2023/09/18 01:57:00;;;;;;;23.70;9.52;;;;;;;19.62;100.00;100141.66;4898765;29;20032;-88
2023/09/18 01:59:28;;;;;;;26.63;9.65;;;;;;;19.66;100.00;100143.00;4910930;29;20051;-86
2023/09/18 02:01:54;;;;;;;23.08;9.25;;;;;;;19.65;100.00;100141.28;4914837;29;20040;-88
2023/09/18 02:04:20;;;;;;;24.10;9.05;;;;;;;19.61;100.00;100132.50;4905632;29;20357;-88
2023/09/18 02:06:47;;;;;;;15.65;8.93;;;;;;;19.67;100.00;100135.53;4915793;29;20036;-87
2023/09/18 02:09:13;;;;;;;21.10;10.13;;;;;;;19.58;100.00;100116.22;4919091;29;20147;-87
2023/09/18 02:11:41;;;;;;;20.80;9.60;;;;;;;19.65;100.00;100128.25;4939129;29;20110;-87
2023/09/18 02:14:09;;;;;;;19.48;9.35;;;;;;;19.70;100.00;100122.09;4928415;29;20040;-87
2023/09/18 02:16:35;;;;;;;16.45;8.80;;;;;;;19.62;100.00;100117.53;4912099;29;20031;-87
2023/09/18 02:19:02;;;;;;;15.65;9.32;;;;;;;19.67;100.00;100107.75;4939129;29;20020;-87
2023/09/18 02:21:27;;;;;;;17.25;8.80;;;;;;;19.67;100.00;100105.81;4912593;29;20031;-87
2023/09/18 02:23:54;;;;;;;16.75;8.57;;;;;;;19.69;100.00;100113.97;4917020;29;20114;-87
2023/09/18 02:26:22;;;;;;;23.52;9.25;;;;;;;19.63;100.00;100101.75;4908655;29;20023;-87
2023/09/18 02:28:47;;;;;;;16.88;8.85;;;;;;;19.68;100.00;100090.88;4914201;29;20105;-86
2023/09/18 02:31:15;;;;;;;12.18;8.18;;;;;;;19.64;100.00;100076.56;4910324;29;20495;-87
2023/09/18 02:33:41;;;;;;;21.95;7.88;;;;;;;19.64;100.00;100070.13;4935237;29;20027;-87
2023/09/18 02:36:07;;;;;;;18.83;9.00;;;;;;;19.62;100.00;100067.53;4919626;29;20028;-87
2023/09/18 02:38:37;;;;;;;21.33;7.72;;;;;;;19.62;100.00;100055.56;4894659;29;20115;-88
2023/09/18 02:41:03;;;;;;;18.75;7.80;;;;;;;19.65;100.00;100055.19;4912392;29;20081;-88
2023/09/18 02:43:29;;;;;;;14.27;7.88;;;;;;;19.59;100.00;100045.72;4910808;29;20031;-88
2023/09/18 02:45:54;;;;;;;19.08;7.45;;;;;;;19.58;100.00;100045.94;4921828;29;20083;-87
2023/09/18 02:48:20;;;;;;;20.58;8.60;;;;;;;19.51;100.00;100039.47;4937237;29;20449;-88
2023/09/18 02:50:45;;;;;;;15.70;7.85;;;;;;;19.51;100.00;100040.31;4886176;29;20521;-88
2023/09/18 02:53:19;;;;;;;16.45;8.05;;;;;;;19.49;100.00;100033.25;4905691;29;20404;-88
2023/09/18 02:55:45;;;;;;;17.65;8.38;;;;;;;19.47;100.00;100036.22;4912909;29;20490;-87
2023/09/18 02:58:10;;;;;;;23.17;8.73;;;;;;;19.40;100.00;100030.63;4935484;29;20094;-88
2023/09/18 03:00:43;;;;;;;19.90;8.52;;;;;;;19.41;100.00;100037.00;4908760;29;20039;-88
2023/09/18 03:03:08;;;;;;;20.88;8.07;;;;;;;19.37;100.00;100028.25;4922951;29;20099;-88
2023/09/18 03:05:34;;;;;;;17.95;8.93;;;;;;;19.35;100.00;100038.69;4918845;29;20059;-88
2023/09/18 03:07:59;;;;;;;20.70;9.45;;;;;;;19.36;100.00;100040.38;4897877;29;20042;-88
2023/09/18 03:10:25;;;;;;;22.75;9.27;;;;;;;19.29;100.00;100032.00;4902552;29;20215;-88
2023/09/18 03:12:50;;;;;;;23.30;9.13;;;;;;;19.36;100.00;100043.16;4902018;29;20468;-88
2023/09/18 03:15:17;;;;;;;19.90;9.10;;;;;;;19.34;100.00;100030.56;4917106;29;20118;-89
2023/09/18 03:17:42;;;;;;;18.13;8.70;;;;;;;19.31;100.00;100029.03;4904368;29;20559;-88
2023/09/18 03:20:08;;;;;;;18.85;8.77;;;;;;;19.39;100.00;100023.34;4924866;29;20116;-88
2023/09/18 03:22:34;;;;;;;20.33;9.25;;;;;;;19.36;100.00;100020.09;4906614;29;20400;-87
2023/09/18 03:25:00;;;;;;;26.40;8.55;;;;;;;19.38;100.00;100032.75;4929363;29;20031;-88
2023/09/18 03:27:28;;;;;;;30.27;9.18;;;;;;;19.45;100.00;100021.69;4880800;29;20040;-87
2023/09/18 03:29:57;;;;;;;17.80;8.38;;;;;;;19.39;100.00;100016.94;4915484;29;20036;-87
2023/09/18 03:32:23;;;;;;;16.23;9.40;;;;;;;19.54;100.00;100028.78;4919360;29;20035;-87
2023/09/18 03:34:51;;;;;;;18.38;8.35;;;;;;;19.55;100.00;100038.00;4940134;29;20035;-88
2023/09/18 03:37:16;;;;;;;25.80;7.75;;;;;;;19.69;100.00;100058.41;4936650;29;20027;-88
2023/09/18 03:39:42;;;;;;;26.13;8.23;;;;;;;19.70;100.00;100076.81;4912677;29;20032;-88
2023/09/18 03:42:07;;;;;;;24.38;8.15;;;;;;;19.73;100.00;100066.13;4907354;29;20046;-88
2023/09/18 03:44:33;;;;;;;21.52;7.88;;;;;;;19.75;100.00;100068.72;4924305;29;20122;-88
2023/09/18 03:46:58;;;;;;;27.55;7.68;;;;;;;19.73;100.00;100068.91;4904018;29;20035;-89
2023/09/18 03:49:26;;;;;;;21.60;8.68;;;;;;;19.88;100.00;100046.63;4917302;29;20105;-88
2023/09/18 03:51:51;;;;;;;25.60;7.35;;;;;;;19.85;100.00;100035.06;4912920;29;20031;-88
2023/09/18 03:54:17;;;;;;;25.45;8.57;;;;;;;19.88;100.00;100032.72;4941064;29;20043;-88
2023/09/18 03:56:42;;;;;;;18.55;7.38;;;;;;;19.95;100.00;100035.56;4909773;29;20546;-88
2023/09/18 03:59:07;;;;;;;22.83;7.43;;;;;;;19.94;100.00;100033.81;4893333;29;20060;-87
2023/09/18 04:01:33;;;;;;;21.98;7.78;;;;;;;19.88;100.00;100018.84;4890096;29;20052;-86
2023/09/18 04:03:58;;;;;;;32.28;8.35;;;;;;;19.93;100.00;100021.88;4912177;29;20036;-85
2023/09/18 04:06:24;;;;;;;25.35;7.07;;;;;;;19.92;100.00;100000.72;4919450;29;20031;-86
2023/09/18 04:08:51;;;;;;;19.92;7.78;;;;;;;19.94;100.00;100004.16;4914159;29;20076;-86
2023/09/18 04:11:17;;;;;;;22.77;6.70;;;;;;;19.95;100.00;100003.06;4911966;29;20032;-86
2023/09/18 04:13:42;;;;;;;14.40;6.63;;;;;;;19.89;100.00;100003.91;4915296;29;20087;-86
2023/09/18 04:16:07;;;;;;;16.70;6.28;;;;;;;19.96;100.00;100009.50;4902989;29;20052;-86
2023/09/18 04:18:33;;;;;;;24.35;6.53;;;;;;;20.06;100.00;100014.69;4901628;29;20040;-87
2023/09/18 04:20:59;;;;;;;14.60;5.45;;;;;;;20.08;100.00;100010.63;4906837;29;20126;-86
2023/09/18 04:23:27;;;;;;;16.02;5.00;;;;;;;20.00;100.00;100008.91;4919499;29;20084;-86
2023/09/18 04:25:57;;;;;;;22.33;5.72;;;;;;;20.08;100.00;100001.44;4914725;29;20024;-85
2023/09/18 04:28:23;;;;;;;14.15;5.82;;;;;;;20.09;100.00;100014.28;4902017;29;20042;-86
2023/09/18 04:30:48;;;;;;;14.95;5.15;;;;;;;20.07;100.00;99994.16;4911187;29;20032;-85
2023/09/18 04:33:15;;;;;;;21.20;5.85;;;;;;;20.06;100.00;99990.53;4917363;29;20035;-85
2023/09/18 04:35:40;;;;;;;20.60;5.80;;;;;;;20.00;100.00;99981.09;4907883;29;20032;-85
2023/09/18 04:38:08;;;;;;;12.98;5.60;;;;;;;19.98;100.00;99974.03;4891719;29;20046;-86
2023/09/18 04:40:34;;;;;;;14.15;5.22;;;;;;;19.94;100.00;99969.91;4898746;29;20024;-85
2023/09/18 04:43:00;;;;;;;12.20;5.95;;;;;;;19.95;100.00;99963.31;4909694;29;20087;-86
2023/09/18 04:45:26;;;;;;;11.93;5.57;;;;;;;19.93;100.00;99954.31;4906051;29;20040;-85
2023/09/18 04:47:52;;;;;;;13.30;5.90;;;;;;;19.94;100.00;99953.25;4908558;29;20175;-85
2023/09/18 04:50:18;;;;;;;17.40;5.50;;;;;;;19.95;100.00;99941.09;4909180;29;20550;-81
2023/09/18 04:52:44;;;;;;;12.98;5.47;;;;;;;19.94;100.00;99944.91;4911521;29;20036;-86
2023/09/18 04:55:10;;;;;;;12.18;5.32;;;;;;;19.91;100.00;99945.34;4910994;29;20407;-84
2023/09/18 04:57:36;;;;;;;11.82;5.60;;;;;;;19.93;100.00;99952.41;4920197;29;20055;-84
2023/09/18 05:00:02;;;;;;;15.98;5.55;;;;;;;19.89;100.00;99951.09;4921197;29;20127;-86
2023/09/18 05:02:28;;;;;;;15.77;5.45;;;;;;;19.87;100.00;99927.34;4908455;29;20043;-85
2023/09/18 05:04:55;;;;;;;7.13;4.13;;;;;;;19.86;100.00;99926.50;4913210;29;20036;-85
2023/09/18 05:07:21;;;;;;;12.70;5.45;;;;;;;19.88;100.00;99941.03;4904100;29;20032;-85
2023/09/18 05:09:46;;;;;;;12.75;5.40;;;;;;;19.78;100.00;99946.97;4894234;29;20683;-85
2023/09/18 05:12:15;;;;;;;12.23;5.47;;;;;;;19.75;100.00;99957.59;4912219;29;20403;-86
2023/09/18 05:14:41;;;;;;;11.95;4.38;;;;;;;19.73;100.00;99955.03;4915188;29;20039;-86
2023/09/18 05:17:10;;;;;;;10.30;5.25;;;;;;;19.71;100.00;99956.28;4914894;29;20044;-87
2023/09/18 05:19:36;;;;;;;8.25;4.40;;;;;;;19.64;100.00;99962.69;4909604;29;20103;-86
2023/09/18 05:22:02;;;;;;;8.57;4.68;;;;;;;19.63;100.00;99968.44;4885352;29;20475;-86
2023/09/18 05:24:29;;;;;;;16.13;5.57;;;;;;;19.58;100.00;99969.03;4908905;29;20131;-86
2023/09/18 05:26:54;;;;;;;10.70;5.22;;;;;;;19.52;100.00;99967.06;4910892;29;20116;-87
2023/09/18 05:29:20;;;;;;;14.93;5.05;;;;;;;19.53;100.00;99967.91;4907966;29;20127;-85
2023/09/18 05:31:45;;;;;;;10.68;4.82;;;;;;;19.51;100.00;99976.44;4903365;29;20037;-87
2023/09/18 05:34:12;;;;;;;11.07;5.05;;;;;;;19.47;100.00;99984.31;4915238;29;20090;-87
2023/09/18 05:36:37;;;;;;;10.57;5.00;;;;;;;19.43;100.00;99991.34;4898814;29;20024;-86
2023/09/18 05:39:03;;;;;;;6.97;4.10;;;;;;;19.40;100.00;99988.97;4904153;29;20028;-86
2023/09/18 05:41:31;;;;;;;10.60;5.00;;;;;;;19.38;100.00;99993.00;4911241;29;20032;-87
2023/09/18 05:43:57;;;;;;;12.75;5.22;;;;;;;19.37;100.00;100007.94;4897079;29;20040;-87
2023/09/18 05:46:22;;;;;;;16.00;4.35;;;;;;;19.32;100.00;100004.91;4891313;29;20047;-86
2023/09/18 05:48:47;;;;;;;13.75;4.80;;;;;;;19.33;100.00;100009.41;4891635;29;20040;-86
2023/09/18 05:51:13;;;;;;;12.32;5.53;;;;;;;19.28;100.00;100008.09;4899095;29;20459;-86
2023/09/18 05:53:39;;;;;;;11.52;5.05;;;;;;;19.23;100.00;100016.16;4905094;29;20050;-86
2023/09/18 05:56:04;;;;;;;9.88;4.63;;;;;;;19.24;100.00;100011.47;4883497;29;20437;-86
2023/09/18 05:58:33;;;;;;;11.40;4.65;;;;;;;19.23;100.00;100009.72;4896390;29;20055;-87
2023/09/18 06:01:00;;;;;;;13.32;4.80;;;;;;;19.18;100.00;100006.69;4879667;29;20044;-86
2023/09/18 06:03:30;;;;;;;10.02;4.47;;;;;;;19.22;100.00;100008.03;4905241;29;20083;-86
2023/09/18 06:05:56;;;;;;;11.02;4.95;;;;;;;19.22;100.00;100008.88;4908946;29;20036;-86
2023/09/18 06:08:22;;;;;;;16.33;4.97;;;;;;;19.25;100.00;100021.50;4913795;29;20059;-86
2023/09/18 06:10:48;;;;;;;10.90;4.00;;;;;;;19.27;100.00;100033.28;4890398;29;20384;-80
2023/09/18 06:13:13;;;;;;;11.13;4.15;;;;;;;19.27;100.00;100033.28;4909296;29;20488;-80
2023/09/18 06:15:38;;;;;;;6.93;3.60;;;;;;;19.26;100.00;100026.84;4907706;29;20036;-80
2023/09/18 06:18:06;;;;;;;10.13;3.03;;;;;;;19.27;100.00;100022.16;4883150;29;20036;-80
2023/09/18 06:20:31;;;;;;;8.85;2.90;;;;;;;19.32;100.00;100030.75;4907576;29;20040;-81
2023/09/18 06:22:56;;;;;;;5.00;2.60;;;;;;;19.36;100.00;100029.28;4913683;29;20036;-79
2023/09/18 06:25:22;;;;;;;9.18;2.83;;;;;;;19.37;100.00;100038.50;4909784;29;20058;-79
2023/09/18 06:27:47;;;;;;;5.90;2.15;;;;;;;19.39;100.00;100045.53;4913178;29;20455;-79
2023/09/18 06:30:13;;;;;;;6.10;2.00;;;;;;;19.40;100.00;100041.72;4907379;29;20032;-79
2023/09/18 06:32:38;;;;;;;3.38;1.52;;;;;;;19.40;100.00;100050.06;4908553;29;20033;-79
2023/09/18 06:35:04;;;;;;;9.70;2.10;;;;;;;19.39;100.00;100040.00;4878266;29;20047;-79
2023/09/18 06:37:30;;;;;;;8.20;2.05;;;;;;;19.43;100.00;100049.66;4883023;29;20039;-79
2023/09/18 06:39:56;;;;;;;7.47;2.17;;;;;;;19.45;100.00;100049.47;4909882;29;20353;-79
2023/09/18 06:42:22;;;;;;;5.47;1.98;;;;;;;19.44;100.00;100047.72;4912577;29;20032;-79
2023/09/18 06:44:47;;;;;;;8.70;2.13;;;;;;;19.43;100.00;100065.44;4913071;29;20028;-79
2023/09/18 06:47:14;;;;;;;4.88;1.80;;;;;;;19.44;100.00;100064.38;4904108;29;20035;-79
2023/09/18 06:49:41;;;;;;;4.85;1.95;;;;;;;19.47;100.00;100072.31;4903633;29;20036;-79
2023/09/18 06:52:07;;;;;;;3.97;1.90;;;;;;;19.53;100.00;100070.66;4920000;29;20099;-78
2023/09/18 06:54:33;;;;;;;5.57;1.70;;;;;;;19.53;100.00;100077.09;4904899;29;20048;-78
2023/09/18 06:56:58;;;;;;;8.60;1.92;;;;;;;19.56;100.00;100073.91;4912411;29;20025;-77
2023/09/18 06:59:23;;;;;;;8.18;2.00;;;;;;;19.57;100.00;100080.31;4902196;29;20572;-79
2023/09/18 07:01:49;;;;;;;8.60;1.80;;;;;;;19.60;100.00;100079.91;4891841;29;21387;-82
2023/09/18 07:04:14;;;;;;;9.70;1.85;;;;;;;19.60;100.00;100072.44;4907200;29;20040;-82
2023/09/18 07:06:40;;;;;;;10.77;2.10;;;;;;;19.58;100.00;100076.50;4905919;29;20405;-80
2023/09/18 07:09:06;;;;;;;3.95;2.10;;;;;;;19.56;100.00;100073.91;4905315;29;20733;-80
2023/09/18 07:11:33;;;;;;;4.15;2.08;;;;;;;19.56;100.00;100059.16;4898599;29;20040;-80
2023/09/18 07:13:59;;;;;;;7.60;1.80;;;;;;;19.57;100.00;100083.09;4906296;29;20032;-79
2023/09/18 07:16:24;;;;;;;3.30;1.80;;;;;;;19.54;100.00;100078.78;4910188;29;20091;-79
2023/09/18 07:18:50;;;;;;;9.38;1.85;;;;;;;19.68;100.00;100079.78;4893019;29;20123;-79
2023/09/18 07:21:17;;;;;;;5.13;1.60;;;;;;;19.47;100.00;100067.63;4915086;29;20106;-91
2023/09/18 07:23:45;;;;;;;8.10;1.70;;;;;;;19.53;100.00;100070.66;4909521;29;20079;-89
2023/09/18 07:26:11;;;;;;;3.67;1.90;;;;;;;19.52;100.00;100078.13;4901807;29;20055;-95
2023/09/18 07:28:38;;;;;;;2.92;1.70;;;;;;;19.50;100.00;100101.63;5641602;23;20029;-88
2023/09/18 07:31:08;;;;;;;6.22;1.70;;;;;;;19.55;100.00;100107.44;4957091;28;20051;-90
2023/09/18 07:33:34;;;;;;;6.90;1.77;;;;;;;19.51;100.00;100090.28;4960848;28;20064;-89
2023/09/18 07:36:00;;;;;;;12.07;1.77;;;;;;;19.50;100.00;100094.13;4951757;28;20030;-92
2023/09/18 07:38:26;;;;;;;12.98;2.03;;;;;;;19.44;100.00;100109.66;4991189;28;20034;-89
2023/09/18 07:40:52;;;;;;;4.43;1.38;;;;;;;19.51;100.00;100101.41;4957719;28;20609;-90
2023/09/18 07:43:18;;;;;;;10.10;2.33;;;;;;;19.46;100.00;100090.91;4983109;28;20034;-91
2023/09/18 07:45:43;;;;;;;8.43;1.80;;;;;;;19.48;100.00;100099.03;4968469;28;20187;-87
2023/09/18 07:48:09;;;;;;;6.90;1.95;;;;;;;19.48;100.00;100101.81;4973358;28;20045;-88
2023/09/18 07:50:35;;;;;;;3.83;1.63;;;;;;;19.48;100.00;100099.03;4959406;28;20031;-89
2023/09/18 07:53:01;;;;;;;7.25;1.80;;;;;;;19.57;100.00;100096.97;4956339;28;20039;-89
2023/09/18 07:55:28;;;;;;;5.18;1.73;;;;;;;19.70;100.00;100101.81;4969086;28;20033;-88
2023/09/18 07:57:53;;;;;;;4.95;1.83;;;;;;;19.72;100.00;100097.75;4983407;28;20499;-89
2023/09/18 08:00:19;;;;;;;4.70;2.08;;;;;;;19.70;100.00;100083.22;4956516;28;20023;-88
2023/09/18 08:02:46;;;;;;;5.70;2.30;;;;;;;19.66;100.00;100090.25;4956941;28;20045;-88
2023/09/18 08:05:11;;;;;;;6.60;1.60;;;;;;;19.68;100.00;100093.66;4965489;28;20433;-92
2023/09/18 08:07:37;;;;;;;8.15;2.10;;;;;;;19.65;100.00;100086.56;4988619;28;20033;-88
2023/09/18 08:10:06;;;;;;;5.28;1.90;;;;;;;19.70;100.00;100087.91;4965486;28;20031;-87
2023/09/18 08:12:32;;;;;;;9.18;1.83;;;;;;;19.78;100.00;100090.59;4974827;28;20033;-85
2023/09/18 08:14:58;;;;;;;19.60;1.95;;;;;;;19.78;100.00;100093.34;4963719;28;20120;-84
2023/09/18 08:17:24;;;;;;;4.65;1.83;;;;;;;19.76;100.00;100087.16;4967517;28;20481;-86
2023/09/18 08:19:52;;;;;;;5.60;2.17;;;;;;;19.76;100.00;100096.34;4976697;28;20039;-85
2023/09/18 08:22:18;;;;;;;6.20;1.98;;;;;;;19.78;100.00;100104.47;4980731;28;20053;-85
2023/09/18 08:24:45;;;;;;;3.53;1.33;;;;;;;20.20;100.00;100110.97;4985180;28;20020;-85
2023/09/18 08:27:13;;;;;;;6.97;1.98;;;;;;;20.36;100.00;100104.25;4981426;28;20034;-86
2023/09/18 08:29:39;;;;;;;5.53;1.52;;;;;;;20.12;100.00;100114.78;4987832;28;20054;-85
2023/09/18 08:32:04;;;;;;;5.78;1.75;;;;;;;19.93;100.00;100107.16;4974298;28;20034;-86
2023/09/18 08:34:31;;;;;;;5.57;1.70;;;;;;;19.88;100.00;100115.25;4979097;28;20556;-85
2023/09/18 08:36:56;;;;;;;5.28;1.63;;;;;;;19.93;100.00;100132.16;4965859;28;20083;-85
2023/09/18 08:39:22;;;;;;;6.75;1.70;;;;;;;19.93;100.00;100119.13;4985788;28;20125;-85
2023/09/18 08:41:51;;;;;;;4.70;1.50;;;;;;;20.05;100.00;100126.91;4976920;28;20069;-86
2023/09/18 08:44:17;;;;;;;5.20;1.63;;;;;;;20.00;100.00;100133.06;4991532;28;20032;-85
2023/09/18 08:46:43;;;;;;;4.95;1.48;;;;;;;20.06;100.00;100137.81;4988968;28;20049;-85
2023/09/18 08:49:11;;;;;;;4.43;1.70;;;;;;;20.18;100.00;100136.22;4978039;28;20027;-86
2023/09/18 08:51:38;;;;;;;5.55;1.80;;;;;;;20.07;100.00;100133.13;4962503;28;20055;-86
2023/09/18 08:54:04;;;;;;;7.82;1.75;;;;;;;20.07;100.00;100133.13;4982085;28;20022;-86
2023/09/18 08:56:31;;;;;;;5.75;1.83;;;;;;;20.15;100.00;100135.75;4984636;28;20050;-87
2023/09/18 08:58:58;;;;;;;9.40;1.90;;;;;;;20.12;100.00;100131.47;4979884;28;20405;-87
2023/09/18 09:01:23;;;;;;;7.97;1.80;;;;;;;20.22;100.00;100141.34;4952063;28;20104;-87
2023/09/18 09:03:48;;;;;;;3.30;1.40;;;;;;;20.33;100.00;100138.91;4984002;28;20453;-87
2023/09/18 09:06:14;;;;;;;3.60;1.40;;;;;;;20.53;100.00;100140.94;4975834;28;20038;-87
2023/09/18 09:08:40;;;;;;;7.60;1.52;;;;;;;20.28;100.00;100146.97;4973951;28;20402;-86
2023/09/18 09:11:06;;;;;;;5.35;2.00;;;;;;;20.20;100.00;100138.78;4972669;28;20093;-87
2023/09/18 09:13:31;;;;;;;9.45;1.73;;;;;;;20.84;100.00;100142.41;4972154;28;20049;-85
2023/09/18 09:15:58;;;;;;;5.57;1.48;;;;;;;21.38;100.00;100140.69;4981328;28;20504;-84
2023/09/18 09:18:28;;;;;;;6.15;1.60;;;;;;;21.84;100.00;100129.66;4979982;28;20488;-83
2023/09/18 09:20:59;;;;;;;6.70;1.92;;;;;;;22.16;100.00;100143.81;4980125;28;20031;-84
2023/09/18 09:23:27;;;;;;;6.47;1.55;;;;;;;21.73;100.00;100147.00;4983206;28;20038;-84
2023/09/18 09:25:54;;;;;;;3.95;1.67;;;;;;;22.03;100.00;100143.81;4984465;28;20026;-84
2023/09/18 09:28:38;;;;;;;6.68;1.67;;;;;;;22.26;100.00;100140.56;4979318;28;20068;-84
2023/09/18 09:31:04;;;;;;;5.05;2.10;;;;;;;22.46;100.00;100125.78;4983235;28;20117;-84
2023/09/18 09:33:30;;;;;;;9.15;1.98;;;;;;;22.61;100.00;100134.75;4982650;28;21281;-85
2023/09/18 09:35:57;;;;;;;8.82;2.33;;;;;;;23.00;100.00;100137.63;4986925;28;20057;-84
2023/09/18 09:38:34;;;;;;;7.38;2.08;;;;;;;22.75;100.00;100139.22;4985032;28;20042;-84
2023/09/18 09:41:09;;;;;;;5.57;1.92;;;;;;;23.29;100.00;100134.28;4982511;28;20030;-78
2023/09/18 09:43:35;;;;;;;6.10;1.95;;;;;;;22.97;100.00;100133.34;4982198;28;20486;-80
2023/09/18 09:46:01;;;;;;;7.22;2.17;;;;;;;22.57;100.00;100134.31;4978264;28;20049;-79
2023/09/18 09:48:30;;;;;;;9.60;2.17;;;;;;;23.22;100.00;100127.03;4983881;28;20023;-79
2023/09/18 09:51:02;;;;;;;4.15;2.20;;;;;;;23.21;100.00;100133.72;4980971;28;20490;-79
2023/09/18 09:53:47;;;;;;;8.45;2.40;;;;;;;23.47;100.00;100144.72;4989046;28;20038;-80
2023/09/18 09:56:12;;;;;;;6.57;1.88;;;;;;;23.18;100.00;100143.38;4971113;28;20039;-79
2023/09/18 09:58:41;;;;;;;11.85;2.00;;;;;;;23.02;100.00;100158.69;4981082;28;20040;-79
2023/09/18 10:01:10;;;;;;;9.15;2.13;;;;;;;23.27;100.00;100158.81;4986785;28;20376;-79
2023/09/18 10:03:39;;;;;;;7.28;2.08;;;;;;;23.38;100.00;100167.56;4981550;28;20493;-79
2023/09/18 10:06:06;;;;;;;4.68;1.92;;;;;;;23.54;100.00;100161.44;4976038;28;20134;-80
2023/09/18 10:08:33;;;;;;;10.00;2.00;;;;;;;23.88;100.00;100162.13;4982756;28;20067;-80
2023/09/18 10:11:11;;;;;;;9.73;2.60;;;;;;;23.13;100.00;100168.31;4982156;28;20037;-80
2023/09/18 10:13:46;;;;;;;6.13;1.98;;;;;;;23.03;100.00;100162.31;4964772;28;20027;-80
2023/09/18 10:16:13;;;;;;;7.25;2.47;;;;;;;23.18;100.00;100168.50;4983459;28;20585;-80
2023/09/18 10:18:46;;;;;;;10.18;2.47;;;;;;;22.97;100.00;100182.75;4984378;28;20039;-80
2023/09/18 10:21:31;;;;;;;10.63;1.98;;;;;;;22.67;100.00;100186.91;4983392;28;20022;-80
2023/09/18 10:24:24;;;;;;;8.15;2.15;;;;;;;22.44;100.00;100194.88;4976527;28;20382;-80
2023/09/18 10:26:58;;;;;;;7.47;1.80;;;;;;;22.42;100.00;100183.09;4986738;28;20034;-80
2023/09/18 10:29:29;;;;;;;5.03;1.88;;;;;;;22.29;100.00;100192.31;4982527;28;20186;-80
2023/09/18 10:31:55;;;;;;;4.07;1.88;;;;;;;22.25;100.00;100182.63;4988578;28;20033;-80
2023/09/18 10:34:26;;;;;;;7.13;2.05;;;;;;;22.24;100.00;100190.16;4981373;28;20044;-80
2023/09/18 10:36:53;;;;;;;5.40;1.75;;;;;;;22.33;100.00;100194.47;4984790;28;20469;-80
2023/09/18 10:39:23;;;;;;;8.60;1.88;;;;;;;22.38;100.00;100202.16;4993136;28;20481;-80
2023/09/18 10:41:55;;;;;;;5.95;2.10;;;;;;;22.08;100.00;100187.78;4981941;28;20520;-78
2023/09/18 10:44:21;;;;;;;6.80;2.33;;;;;;;22.29;100.00;100176.44;4981925;28;20043;-79
2023/09/18 10:46:51;;;;;;;7.43;2.35;;;;;;;22.81;100.00;100175.69;4987328;28;20388;-80
2023/09/18 10:49:18;;;;;;;2.88;1.75;;;;;;;22.45;100.00;100177.06;4977308;28;20409;-80
2023/09/18 10:51:43;;;;;;;8.55;2.38;;;;;;;22.83;100.00;100177.22;4984376;28;20125;-79
2023/09/18 10:54:10;;;;;;;3.83;1.73;;;;;;;23.29;100.00;100170.63;4976902;28;20502;-79
2023/09/18 10:56:36;;;;;;;3.40;2.17;;;;;;;23.40;100.00;100168.19;4968619;28;20045;-79
2023/09/18 10:59:05;;;;;;;5.78;2.17;;;;;;;23.29;100.00;100176.19;4984400;28;20023;-79
2023/09/18 11:01:31;;;;;;;5.65;2.17;;;;;;;23.10;100.00;100178.03;4980147;28;20030;-79
2023/09/18 11:04:08;;;;;;;5.72;2.13;;;;;;;23.31;100.00;100168.44;4980745;28;20036;-79
2023/09/18 11:06:55;;;;;;;6.60;2.17;;;;;;;23.59;100.00;100161.63;4981624;28;20037;-79
2023/09/18 11:09:22;;;;;;;5.18;2.13;;;;;;;23.86;100.00;100158.72;4984606;28;20074;-79
2023/09/18 11:12:03;;;;;;;8.70;2.28;;;;;;;23.07;100.00;100167.28;4971494;28;20038;-79